Date,TemperatureHighF,TemperatureAvgF,TemperatureLowF,DewpointHighF,DewpointAvgF,DewpointLowF,HumidityHigh,HumidityAvg,HumidityLow,PressureMaxIn,PressureMinIn,WindSpeedMaxMPH,WindSpeedAvgMPH,GustSpeedMaxMPH,PrecipitationSumIn
2013-2-1,43,39,34,42,37,31,99,94,84,30.57,30.09,6,2,14,0.09
2013-2-2,40,36,33,34,31,28,94,82,62,30.94,30.57,5,2,12,0.00
2013-2-3,49,45,35,48,43,34,99,93,79,30.76,30.20,11,5,24,0.02
2013-2-4,49,38,33,49,37,32,99,96,79,30.30,30.06,15,6,28,0.18
2013-2-5,43,38,32,41,36,31,99,93,81,30.33,29.80,9,4,20,0.01
2013-2-6,41,38,36,37,31,27,86,75,64,30.89,30.33,8,5,19,0.00
2013-2-7,41,36,32,37,33,27,99,88,70,30.89,30.75,5,1,11,0.00
2013-2-8,45,39,34,39,36,34,99,90,71,30.92,30.82,4,1,10,0.04
2013-2-9,40,39,37,40,38,37,99,99,99,30.88,30.56,4,1,8,0.04
2013-2-10,39,38,36,39,37,35,99,97,90,30.56,30.17,8,4,18,0.06
2013-2-11,42,38,34,38,33,29,99,84,69,30.71,30.25,9,4,17,0.04
2013-2-12,39,36,34,32,31,29,92,80,71,30.85,30.71,4,2,11,0.00
2013-2-13,43,36,31,43,35,29,99,96,81,30.84,30.26,4,1,15,0.30
2013-2-14,48,44,41,46,43,41,99,96,85,30.55,30.29,7,3,16,0.01
2013-2-15,51,44,35,44,41,35,99,91,73,30.86,30.57,5,2,13,0.00
2013-2-16,49,41,35,47,40,35,99,98,91,30.88,30.83,2,0,7,0.00
2013-2-17,54,43,32,45,40,32,99,89,59,30.88,30.81,2,0,7,0.00
2013-2-18,50,35,28,44,34,28,99,94,70,30.88,30.83,2,0,4,0.00
2013-2-19,48,36,27,42,35,27,99,96,66,30.91,30.86,4,1,8,0.00
2013-2-20,43,39,32,42,37,29,99,91,78,31.08,30.90,6,2,14,0.00
2013-2-21,39,34,29,30,27,24,92,76,60,31.10,31.05,6,2,12,0.00
2013-2-22,38,35,33,30,26,23,85,70,63,31.09,31.04,3,1,8,0.00
2013-2-23,47,36,32,36,30,24,99,81,49,31.16,31.03,5,1,10,0.00
2013-2-24,48,37,32,44,36,32,99,97,75,31.24,31.16,5,0,13,0.05
2013-2-25,46,36,29,44,35,29,99,96,80,31.40,31.23,4,1,8,0.01
2013-2-26,44,38,34,42,38,34,99,97,82,31.46,31.39,6,1,10,0.00
2013-2-27,46,36,32,42,36,32,99,98,82,31.46,31.36,4,1,8,0.00
2013-2-28,45,37,30,45,37,29,99,99,95,31.36,31.28,2,0,5,0.01